Time;durP1;ratioP1;P1;durP2;ratioP2;P2;SDS_P1;SDS_P2;PMS_P1;PMS_P2;Temp;Humidity;BMP_temperature;BMP_pressure;BME280_temperature;BME280_humidity;BME280_pressure;Samples;Min_cycle;Max_cycle;Signal;HPM_P1;HPM_P2
2023/11/30 00:02:13;;;;;;;1999.90;999.90;;;1.80;99.90;;;;;;4980879;28;20105;-71
2023/11/30 00:04:39;;;;;;;1999.90;999.90;;;1.80;99.90;;;;;;4999517;28;20029;-71
2023/11/30 00:07:10;;;;;;;1999.90;999.90;;;1.80;99.90;;;;;;4993271;28;20077;-70
2023/11/30 00:09:36;;;;;;;1999.90;999.90;;;1.90;99.90;;;;;;4982203;28;20371;-69
2023/11/30 00:12:03;;;;;;;1999.90;999.90;;;1.90;99.90;;;;;;4997926;28;20042;-70
2023/11/30 00:14:29;;;;;;;1999.90;999.90;;;1.90;99.90;;;;;;4993967;28;20084;-71
2023/11/30 00:16:55;;;;;;;1999.90;999.90;;;2.00;99.90;;;;;;4991199;28;20034;-71
2023/11/30 00:19:20;;;;;;;1999.90;999.90;;;2.00;99.90;;;;;;4973705;28;20278;-71
2023/11/30 00:21:46;;;;;;;1999.90;999.90;;;2.00;99.90;;;;;;4990363;28;20027;-71
2023/11/30 00:24:12;;;;;;;1999.90;999.90;;;1.80;99.90;;;;;;4990940;28;20035;-71
2023/11/30 00:26:38;;;;;;;1999.90;999.90;;;1.80;99.90;;;;;;5047710;28;20049;-71
2023/11/30 00:29:04;;;;;;;1999.90;999.90;;;1.80;99.90;;;;;;5093093;28;20024;-71
2023/11/30 00:31:30;;;;;;;1999.90;999.90;;;1.70;99.90;;;;;;5085038;28;20056;-70
2023/11/30 00:33:55;;;;;;;1999.90;999.90;;;1.70;99.90;;;;;;5080716;28;20264;-71
2023/11/30 00:36:21;;;;;;;1999.90;999.90;;;1.70;99.90;;;;;;5082623;28;20036;-71
2023/11/30 00:38:47;;;;;;;1999.90;999.90;;;1.70;99.90;;;;;;5085295;28;20032;-71
2023/11/30 00:41:16;;;;;;;1999.90;999.90;;;1.70;99.90;;;;;;5088115;28;20039;-71
2023/11/30 00:43:42;;;;;;;1999.90;999.90;;;1.70;99.90;;;;;;5081900;28;20100;-71
2023/11/30 00:46:12;;;;;;;1999.90;999.90;;;1.80;99.90;;;;;;5074908;28;20033;-71
2023/11/30 00:48:38;;;;;;;1999.90;999.90;;;1.80;99.90;;;;;;5081033;28;20037;-71
2023/11/30 00:51:03;;;;;;;1999.90;999.90;;;1.80;99.90;;;;;;5076527;28;20040;-71
2023/11/30 00:53:29;;;;;;;1999.90;999.90;;;1.70;99.90;;;;;;5076463;28;20036;-71
2023/11/30 00:55:55;;;;;;;1999.90;999.90;;;1.70;99.90;;;;;;5075636;28;20106;-71
2023/11/30 00:58:21;;;;;;;1999.90;999.90;;;1.70;99.90;;;;;;5072583;28;20078;-71
2023/11/30 01:00:46;;;;;;;1999.90;999.90;;;1.70;99.90;;;;;;5067594;28;20025;-71
2023/11/30 01:03:12;;;;;;;1999.90;999.90;;;1.70;99.90;;;;;;5072669;28;20028;-71
2023/11/30 01:05:38;;;;;;;1999.90;999.90;;;1.70;99.90;;;;;;5081339;28;20031;-71
2023/11/30 01:08:04;;;;;;;1999.90;999.90;;;1.70;99.90;;;;;;5087073;28;20111;-70
2023/11/30 01:10:29;;;;;;;1999.90;999.90;;;1.60;99.90;;;;;;5087656;28;20064;-71
2023/11/30 01:12:55;;;;;;;1999.90;999.90;;;1.60;99.90;;;;;;5080424;28;20040;-71
2023/11/30 01:15:21;;;;;;;1999.90;999.90;;;1.60;99.90;;;;;;5091466;28;20384;-71
2023/11/30 01:17:47;;;;;;;1999.90;999.90;;;1.60;99.90;;;;;;5074357;28;20028;-70
2023/11/30 01:20:13;;;;;;;1999.90;999.90;;;1.60;99.90;;;;;;5075617;28;20021;-71
2023/11/30 01:22:38;;;;;;;1999.90;999.90;;;1.60;99.90;;;;;;5082538;28;20031;-71
2023/11/30 01:25:04;;;;;;;1999.90;999.90;;;1.50;99.90;;;;;;5071396;28;20124;-71
2023/11/30 01:27:30;;;;;;;1999.90;999.90;;;1.50;99.90;;;;;;4996676;28;20045;-70
2023/11/30 01:29:56;;;;;;;1999.90;999.90;;;1.40;99.90;;;;;;4995706;28;20022;-71
2023/11/30 01:32:22;;;;;;;1999.90;999.90;;;1.40;99.90;;;;;;4988814;28;20413;-71
2023/11/30 01:34:48;;;;;;;1999.90;999.90;;;1.40;99.90;;;;;;4998392;28;20031;-71
2023/11/30 01:37:14;;;;;;;1999.90;999.90;;;1.50;99.90;;;;;;4972398;28;20038;-71
2023/11/30 01:39:40;;;;;;;1999.90;999.90;;;1.60;99.90;;;;;;4991795;28;20027;-71
2023/11/30 01:42:06;;;;;;;1999.90;999.90;;;1.60;99.90;;;;;;5005612;28;20118;-71
2023/11/30 01:44:31;;;;;;;1999.90;999.90;;;1.60;99.90;;;;;;4996296;28;20058;-70
2023/11/30 01:46:57;;;;;;;1999.90;999.90;;;1.70;99.90;;;;;;4990249;28;20034;-71
2023/11/30 01:49:23;;;;;;;1999.90;999.90;;;1.70;99.90;;;;;;5024014;28;20024;-71
2023/11/30 01:51:49;;;;;;;1999.90;999.90;;;1.70;99.90;;;;;;4996507;28;20035;-70
2023/11/30 01:54:15;;;;;;;1999.90;999.90;;;1.70;99.90;;;;;;5003674;28;20034;-71
2023/11/30 01:56:42;;;;;;;1999.90;999.90;;;1.60;99.90;;;;;;5005587;28;20038;-71
2023/11/30 01:59:12;;;;;;;1999.90;999.90;;;1.50;99.90;;;;;;4996070;28;20022;-71
2023/11/30 02:01:38;;;;;;;1999.90;999.90;;;1.60;99.90;;;;;;5000816;28;20053;-69
2023/11/30 02:04:15;;;;;;;1999.90;999.90;;;1.60;99.90;;;;;;4991649;28;20084;-71
2023/11/30 02:06:44;;;;;;;1999.90;999.90;;;1.60;99.90;;;;;;5000146;28;20022;-71
2023/11/30 02:09:13;;;;;;;1999.90;999.90;;;1.50;99.90;;;;;;5000621;28;20069;-71
2023/11/30 02:11:39;;;;;;;1999.90;999.90;;;1.40;99.90;;;;;;4996705;28;20026;-71
2023/11/30 02:14:05;;;;;;;1999.90;999.90;;;1.40;99.90;;;;;;4974283;28;20167;-71
2023/11/30 02:16:31;;;;;;;1999.90;999.90;;;1.30;99.90;;;;;;4984536;28;20325;-71
2023/11/30 02:18:58;;;;;;;1999.90;999.90;;;1.40;99.90;;;;;;5004914;28;20030;-71
2023/11/30 02:21:24;;;;;;;1999.90;999.90;;;1.40;99.90;;;;;;4997914;28;20022;-71
2023/11/30 02:23:50;;;;;;;1999.90;999.90;;;1.40;99.90;;;;;;4974693;28;20110;-71
2023/11/30 02:26:18;;;;;;;1999.90;999.90;;;1.40;99.90;;;;;;4990783;28;20050;-71
2023/11/30 02:28:44;;;;;;;1999.90;999.90;;;1.40;99.90;;;;;;4997898;28;20065;-71
2023/11/30 02:31:10;;;;;;;1999.90;999.90;;;1.40;99.90;;;;;;4998791;28;20118;-71
2023/11/30 02:33:36;;;;;;;1999.90;999.90;;;1.40;99.90;;;;;;4994819;28;20042;-71
2023/11/30 02:36:02;;;;;;;1999.90;999.90;;;1.30;99.90;;;;;;4993233;28;20034;-71
2023/11/30 02:38:28;;;;;;;1999.90;999.90;;;1.20;99.90;;;;;;4992508;28;20268;-71
2023/11/30 02:40:54;;;;;;;1999.90;999.90;;;1.20;99.90;;;;;;5002181;28;20026;-71
2023/11/30 02:43:20;;;;;;;1999.90;999.90;;;1.20;99.90;;;;;;5005927;28;20029;-71
2023/11/30 02:45:45;;;;;;;1999.90;999.90;;;1.20;99.90;;;;;;4993287;28;20030;-71
2023/11/30 02:48:11;;;;;;;1999.90;999.90;;;1.10;99.90;;;;;;5039940;28;20065;-71
2023/11/30 02:50:37;;;;;;;1999.90;999.90;;;1.10;99.90;;;;;;5002654;28;20075;-71
2023/11/30 02:53:03;;;;;;;1999.90;999.90;;;1.10;99.90;;;;;;4996438;28;20088;-71
2023/11/30 02:55:28;;;;;;;1999.90;999.90;;;1.10;99.90;;;;;;4995484;28;20024;-71
2023/11/30 02:57:54;;;;;;;1999.90;999.90;;;1.10;99.90;;;;;;5000215;28;20034;-71
2023/11/30 03:00:20;;;;;;;1999.90;999.90;;;1.00;99.90;;;;;;4992301;28;20089;-71
2023/11/30 03:02:45;;;;;;;1999.90;999.90;;;1.00;99.90;;;;;;4974541;28;20024;-71
2023/11/30 03:05:11;;;;;;;1999.90;999.90;;;1.10;99.90;;;;;;5002801;28;20057;-71
2023/11/30 03:07:37;;;;;;;1999.90;999.90;;;1.10;99.90;;;;;;5032679;28;20035;-71
2023/11/30 03:10:03;;;;;;;1999.90;999.90;;;1.20;99.90;;;;;;5007918;28;20082;-71
2023/11/30 03:12:29;;;;;;;1999.90;999.90;;;1.20;99.90;;;;;;5037422;28;20298;-71
2023/11/30 03:14:54;;;;;;;1999.90;999.90;;;1.20;99.90;;;;;;5050576;28;20042;-71
2023/11/30 03:17:20;;;;;;;1999.90;999.90;;;1.20;99.90;;;;;;4992695;28;20325;-71
2023/11/30 03:19:46;;;;;;;1999.90;999.90;;;1.30;99.90;;;;;;4975544;28;20031;-71
2023/11/30 03:22:12;;;;;;;1999.90;999.90;;;1.30;99.90;;;;;;4995482;28;20368;-71
2023/11/30 03:24:38;;;;;;;1999.90;999.90;;;1.20;99.90;;;;;;4994837;28;20045;-69
2023/11/30 03:27:03;;;;;;;1999.90;999.90;;;1.20;99.90;;;;;;4994493;28;20085;-71
2023/11/30 03:29:29;;;;;;;1999.90;999.90;;;1.20;99.90;;;;;;4991638;28;20035;-71
2023/11/30 03:31:55;;;;;;;1999.90;999.90;;;1.10;99.90;;;;;;4979467;28;20034;-71
2023/11/30 03:34:20;;;;;;;1999.90;999.90;;;1.10;99.90;;;;;;4999950;28;20329;-71
2023/11/30 03:36:46;;;;;;;1999.90;999.90;;;1.20;99.90;;;;;;5002714;28;20045;-71
2023/11/30 03:39:12;;;;;;;1999.90;999.90;;;1.30;99.90;;;;;;5000346;28;20042;-71
2023/11/30 03:41:38;;;;;;;1999.90;999.90;;;1.40;99.90;;;;;;4986238;28;20027;-71
2023/11/30 03:44:03;;;;;;;1999.90;999.90;;;1.30;99.90;;;;;;5038751;28;20320;-71
2023/11/30 03:46:29;;;;;;;1999.90;999.90;;;1.20;99.90;;;;;;5009761;28;20034;-71
2023/11/30 03:48:55;;;;;;;1999.90;999.90;;;1.10;99.90;;;;;;4987719;28;20327;-69
2023/11/30 03:51:21;;;;;;;1999.90;999.90;;;1.10;99.90;;;;;;4977796;28;20504;-71
2023/11/30 03:53:47;;;;;;;1999.90;999.90;;;1.20;99.90;;;;;;4984338;28;20278;-70
2023/11/30 03:56:13;;;;;;;1999.90;999.90;;;1.10;99.90;;;;;;4979612;28;20065;-71
2023/11/30 03:58:39;;;;;;;1999.90;999.90;;;1.10;99.90;;;;;;4991817;28;20031;-71
2023/11/30 04:01:06;;;;;;;1999.90;999.90;;;1.10;99.90;;;;;;4986244;28;20026;-71
2023/11/30 04:03:32;;;;;;;;;;;1.10;99.90;;;;;;4986500;28;20034;-71
2023/11/30 04:05:58;;;;;;;1999.90;999.90;;;1.10;99.90;;;;;;4983588;28;20261;-71
2023/11/30 04:08:24;;;;;;;1999.90;999.90;;;1.10;99.90;;;;;;4984140;28;20079;-71
2023/11/30 04:10:50;;;;;;;1999.90;999.90;;;1.10;99.90;;;;;;4998527;28;20035;-71
2023/11/30 04:13:16;;;;;;;1999.90;999.90;;;1.10;99.90;;;;;;4993468;28;20555;-71
2023/11/30 04:15:42;;;;;;;1999.90;999.90;;;1.30;99.90;;;;;;4994767;28;20440;-71
2023/11/30 04:18:08;;;;;;;1999.90;999.90;;;1.20;99.90;;;;;;4994405;28;20030;-71
2023/11/30 04:20:34;;;;;;;1999.90;999.90;;;1.30;99.90;;;;;;4988284;28;20022;-71
2023/11/30 04:23:00;;;;;;;1999.90;999.90;;;1.30;99.90;;;;;;4984277;28;20265;-70
2023/11/30 04:25:26;;;;;;;1999.90;999.90;;;1.40;99.90;;;;;;4990655;28;20050;-70
2023/11/30 04:27:52;;;;;;;1999.90;999.90;;;1.50;99.90;;;;;;5002455;28;20034;-71
2023/11/30 04:30:18;;;;;;;1999.90;999.90;;;1.60;99.90;;;;;;5011911;28;20686;-71
2023/11/30 04:32:44;;;;;;;1999.90;999.90;;;1.60;99.90;;;;;;4991519;28;20306;-70
2023/11/30 04:35:09;;;;;;;1999.90;999.90;;;1.60;99.90;;;;;;4991736;28;20023;-71
2023/11/30 04:37:35;;;;;;;1999.90;999.90;;;1.60;99.90;;;;;;4995207;28;20155;-70
2023/11/30 04:40:01;;;;;;;1999.90;999.90;;;1.70;99.90;;;;;;4991387;28;20040;-70
2023/11/30 04:42:27;;;;;;;1999.90;999.90;;;1.70;99.90;;;;;;4991943;28;20648;-71
2023/11/30 04:44:54;;;;;;;1999.90;999.90;;;1.60;99.90;;;;;;4987532;28;20431;-71
2023/11/30 04:47:19;;;;;;;1999.90;999.90;;;1.60;99.90;;;;;;4995241;28;20106;-71
2023/11/30 04:49:45;;;;;;;1999.90;999.90;;;1.60;99.90;;;;;;4990906;28;20039;-70
2023/11/30 04:52:11;;;;;;;1999.90;999.90;;;1.70;99.90;;;;;;4989937;28;20109;-71
2023/11/30 04:54:36;;;;;;;1999.90;999.90;;;1.70;99.90;;;;;;4992890;28;20034;-69
2023/11/30 04:57:02;;;;;;;1999.90;999.90;;;1.80;99.90;;;;;;4993860;28;20035;-70
2023/11/30 04:59:28;;;;;;;1999.90;999.90;;;1.80;99.90;;;;;;5000565;28;20113;-71
2023/11/30 05:01:54;;;;;;;1999.90;999.90;;;1.60;99.90;;;;;;4979104;28;20393;-71
2023/11/30 05:04:20;;;;;;;1999.90;999.90;;;1.60;99.90;;;;;;4989104;28;20367;-71
2023/11/30 05:06:45;;;;;;;1999.90;999.90;;;1.70;99.90;;;;;;4977844;28;20080;-71
2023/11/30 05:09:11;;;;;;;1999.90;999.90;;;1.70;99.90;;;;;;4974421;28;20125;-71
2023/11/30 05:11:37;;;;;;;1999.90;999.90;;;1.80;99.90;;;;;;4993351;28;20083;-71
2023/11/30 05:14:02;;;;;;;1999.90;999.90;;;1.80;99.90;;;;;;4977805;28;20031;-71
2023/11/30 05:16:28;;;;;;;1999.90;999.90;;;1.70;99.90;;;;;;4991222;28;20052;-71
2023/11/30 05:18:54;;;;;;;1999.90;999.90;;;1.70;99.90;;;;;;4981731;28;20033;-69
2023/11/30 05:21:19;;;;;;;1999.90;999.90;;;1.90;99.90;;;;;;4992287;28;20038;-71
2023/11/30 05:23:45;;;;;;;1999.90;999.90;;;1.90;99.90;;;;;;4991877;28;20041;-71
2023/11/30 05:26:11;;;;;;;1999.90;999.90;;;1.90;99.90;;;;;;4985362;28;20429;-71
2023/11/30 05:28:37;;;;;;;1999.90;999.90;;;1.90;99.90;;;;;;4989399;28;20026;-71
2023/11/30 05:31:04;;;;;;;1999.90;999.90;;;2.00;99.90;;;;;;4993276;28;20034;-71
2023/11/30 05:33:31;;;;;;;1999.90;999.90;;;2.00;99.90;;;;;;5001331;28;20026;-71
2023/11/30 05:35:57;;;;;;;1999.90;999.90;;;2.10;99.90;;;;;;4995289;28;20091;-71
2023/11/30 05:38:23;;;;;;;1999.90;999.90;;;2.10;99.90;;;;;;5001937;28;20113;-71
2023/11/30 05:40:48;;;;;;;1999.90;999.90;;;2.10;99.90;;;;;;4989621;28;20109;-71
2023/11/30 05:43:15;;;;;;;1999.90;999.90;;;2.00;99.90;;;;;;5034910;28;20084;-71
2023/11/30 05:45:41;;;;;;;1999.90;999.90;;;2.00;99.90;;;;;;5027968;28;20039;-71
2023/11/30 05:48:06;;;;;;;1999.90;999.90;;;2.00;99.90;;;;;;4994945;28;20099;-71
2023/11/30 05:50:32;;;;;;;1999.90;999.90;;;2.00;99.90;;;;;;4993196;28;20167;-71
2023/11/30 05:52:58;;;;;;;1999.90;999.90;;;2.00;99.90;;;;;;4977021;28;20034;-71
2023/11/30 05:55:24;;;;;;;1999.90;999.90;;;2.00;99.90;;;;;;4998343;28;20335;-71
2023/11/30 05:57:49;;;;;;;1999.90;999.90;;;1.90;99.90;;;;;;4995977;28;20026;-71
2023/11/30 06:00:16;;;;;;;1999.90;999.90;;;1.90;99.90;;;;;;4975957;28;20110;-71
2023/11/30 06:02:42;;;;;;;1999.90;999.90;;;1.90;99.90;;;;;;4979044;28;20058;-71
2023/11/30 06:05:08;;;;;;;1999.90;999.90;;;2.00;99.90;;;;;;4999307;28;20117;-70
2023/11/30 06:07:35;;;;;;;1999.90;999.90;;;2.00;99.90;;;;;;4996777;28;20412;-71
2023/11/30 06:10:01;;;;;;;1999.90;999.90;;;2.00;99.90;;;;;;5011088;28;20034;-71
2023/11/30 06:12:26;;;;;;;1999.90;999.90;;;1.80;99.90;;;;;;4992165;28;20033;-70
2023/11/30 06:14:52;;;;;;;1999.90;999.90;;;1.70;99.90;;;;;;4992267;28;20046;-71
2023/11/30 06:17:18;;;;;;;1999.90;999.90;;;1.60;99.90;;;;;;4992007;28;20026;-71
2023/11/30 06:19:44;;;;;;;1999.90;999.90;;;1.50;99.90;;;;;;4993771;28;20026;-71
2023/11/30 06:22:09;;;;;;;1999.90;999.90;;;1.40;99.90;;;;;;4994418;28;20011;-70
2023/11/30 06:24:35;;;;;;;1999.90;999.90;;;1.30;99.90;;;;;;4994163;28;20035;-71
2023/11/30 06:27:02;;;;;;;1999.90;999.90;;;1.20;99.90;;;;;;5010563;28;20038;-71
2023/11/30 06:29:29;;;;;;;1999.90;999.90;;;1.10;99.90;;;;;;4991836;28;20026;-70
2023/11/30 06:32:01;;;;;;;1999.90;999.90;;;1.10;99.90;;;;;;4983942;28;20065;-71
2023/11/30 06:34:28;;;;;;;1999.90;999.90;;;1.10;99.90;;;;;;5000653;28;21894;-71
2023/11/30 06:36:54;;;;;;;1999.90;999.90;;;1.00;99.90;;;;;;4992501;28;20030;-71
2023/11/30 06:39:20;;;;;;;1999.90;999.90;;;1.00;99.90;;;;;;4994051;28;20036;-71
2023/11/30 06:41:49;;;;;;;1999.90;999.90;;;0.90;99.90;;;;;;4993158;28;20031;-71
2023/11/30 06:44:14;;;;;;;1999.90;999.90;;;0.80;99.90;;;;;;5000470;28;20041;-71
2023/11/30 06:46:42;;;;;;;1999.90;999.90;;;0.70;99.90;;;;;;4992477;28;20026;-71
2023/11/30 06:49:11;;;;;;;1999.90;999.90;;;0.60;99.90;;;;;;4999459;28;20123;-71
2023/11/30 06:51:36;;;;;;;1999.90;999.90;;;0.60;99.90;;;;;;4995823;28;20038;-71
2023/11/30 06:54:03;;;;;;;1999.90;999.90;;;0.50;99.90;;;;;;5021398;28;20051;-69
2023/11/30 06:56:28;;;;;;;1999.90;999.90;;;0.50;99.90;;;;;;4997861;28;20034;-71
2023/11/30 06:58:54;;;;;;;1999.90;999.90;;;0.30;99.90;;;;;;4992038;28;20037;-71
2023/11/30 07:01:26;;;;;;;1999.90;999.90;;;0.20;99.90;;;;;;4997718;28;20487;-71
2023/11/30 07:03:52;;;;;;;1999.90;999.90;;;0.10;99.90;;;;;;4980865;28;20357;-71
2023/11/30 07:06:19;;;;;;;1999.90;999.90;;;0.10;99.90;;;;;;4991575;28;20034;-71
2023/11/30 07:08:45;;;;;;;1999.90;999.90;;;0.20;99.90;;;;;;5031932;28;20030;-71
2023/11/30 07:11:11;;;;;;;1999.90;999.90;;;0.20;99.90;;;;;;5031652;28;20023;-71
2023/11/30 07:13:38;;;;;;;1999.90;999.90;;;0.10;99.90;;;;;;5013158;28;20121;-71
2023/11/30 07:16:04;;;;;;;1999.90;999.90;;;0.10;99.90;;;;;;5002381;28;20026;-71
2023/11/30 07:18:30;;;;;;;1999.90;999.90;;;0.10;99.90;;;;;;4990970;28;20379;-71
2023/11/30 07:20:56;;;;;;;1999.90;999.90;;;0.00;99.90;;;;;;5025790;28;20039;-71
2023/11/30 07:23:22;;;;;;;1999.90;999.90;;;0.10;99.90;;;;;;5062625;28;20028;-71
2023/11/30 07:25:48;;;;;;;1999.90;999.90;;;0.10;99.90;;;;;;5017694;28;20091;-71
2023/11/30 07:28:14;;;;;;;1999.90;999.90;;;0.20;99.90;;;;;;4979428;28;20018;-71
2023/11/30 07:30:43;;;;;;;1999.90;999.90;;;0.30;99.90;;;;;;5017917;28;20327;-71
2023/11/30 07:33:10;;;;;;;1999.90;999.90;;;0.40;99.90;;;;;;4991255;28;20034;-71
2023/11/30 07:35:37;;;;;;;1999.90;999.90;;;0.40;99.90;;;;;;4992175;28;20121;-71
2023/11/30 07:38:03;;;;;;;1999.90;999.90;;;0.40;99.90;;;;;;5020112;28;20025;-68
2023/11/30 07:40:29;;;;;;;1999.90;999.90;;;0.30;99.90;;;;;;4997586;28;20014;-72
2023/11/30 07:42:56;;;;;;;1999.90;999.90;;;0.30;99.90;;;;;;4991140;28;20037;-71
2023/11/30 07:45:22;;;;;;;;;;;0.30;99.90;;;;;;4975293;28;20065;-69
2023/11/30 07:47:47;;;;;;;1999.90;999.90;;;0.30;99.90;;;;;;4976399;28;19941;-71
2023/11/30 07:50:15;;;;;;;1999.90;999.90;;;0.20;99.90;;;;;;4993394;28;20022;-71
2023/11/30 07:52:44;;;;;;;1999.90;999.90;;;0.10;99.90;;;;;;5004042;28;20069;-71
2023/11/30 07:55:13;;;;;;;1999.90;999.90;;;0.10;99.90;;;;;;4991503;28;20030;-71
2023/11/30 07:57:39;;;;;;;1999.90;999.90;;;0.00;99.90;;;;;;4996752;28;20109;-71
2023/11/30 08:00:08;;;;;;;1999.90;999.90;;;0.00;99.90;;;;;;4990624;28;20090;-71
2023/11/30 08:02:34;;;;;;;1999.90;999.90;;;0.00;99.90;;;;;;4974103;28;20058;-71
2023/11/30 08:05:00;;;;;;;1999.90;999.90;;;0.00;99.90;;;;;;4990945;28;20421;-71
2023/11/30 08:07:26;;;;;;;1999.90;999.90;;;-0.10;99.90;;;;;;4993010;28;20043;-71
2023/11/30 08:09:52;;;;;;;1999.90;999.90;;;-0.10;99.90;;;;;;5030640;28;20032;-71
2023/11/30 08:12:18;;;;;;;1999.90;999.90;;;-0.10;99.90;;;;;;4998151;28;20101;-71
2023/11/30 08:14:44;;;;;;;1999.90;999.90;;;-0.10;99.90;;;;;;5012640;28;20112;-71
2023/11/30 08:17:10;;;;;;;1999.90;999.90;;;0.00;99.90;;;;;;5009053;28;20264;-73
2023/11/30 08:19:36;;;;;;;1999.90;999.90;;;0.10;99.90;;;;;;4990213;28;20087;-71
2023/11/30 08:22:02;;;;;;;1999.90;999.90;;;0.10;99.90;;;;;;4992970;28;20027;-71
2023/11/30 08:24:28;;;;;;;1999.90;999.90;;;0.20;99.90;;;;;;4991192;28;20019;-71
2023/11/30 08:26:54;;;;;;;1999.90;999.90;;;0.30;99.90;;;;;;4990855;28;20433;-69
2023/11/30 08:29:21;;;;;;;1999.90;999.90;;;0.40;99.90;;;;;;4992630;28;20094;-71
2023/11/30 08:31:47;;;;;;;1999.90;999.90;;;0.50;99.90;;;;;;4974217;28;20121;-71
2023/11/30 08:34:13;;;;;;;1999.90;999.90;;;0.60;99.90;;;;;;4990068;28;20043;-71
2023/11/30 08:36:38;;;;;;;1999.90;999.90;;;0.60;99.90;;;;;;4991137;28;20470;-70
2023/11/30 08:39:05;;;;;;;1999.90;999.90;;;0.70;99.90;;;;;;5017185;28;20026;-70
2023/11/30 08:41:31;;;;;;;;;;;0.70;99.90;;;;;;4974573;28;20333;-71
2023/11/30 08:43:56;;;;;;;1999.90;999.90;;;0.70;99.90;;;;;;4991224;28;19909;-71
2023/11/30 08:46:22;;;;;;;1999.90;999.90;;;0.80;99.90;;;;;;4991096;28;20042;-71
2023/11/30 08:48:48;;;;;;;1999.90;999.90;;;0.90;99.90;;;;;;4989743;28;20122;-71
2023/11/30 08:51:14;;;;;;;1999.90;999.90;;;0.90;99.90;;;;;;4990363;28;20031;-70
2023/11/30 08:53:40;;;;;;;1999.90;999.90;;;1.00;99.90;;;;;;4991481;28;20410;-71
2023/11/30 08:56:06;;;;;;;1999.90;999.90;;;1.10;99.90;;;;;;5034510;28;20064;-71
2023/11/30 08:58:32;;;;;;;1999.90;999.90;;;1.20;99.90;;;;;;4983253;28;20041;-71
2023/11/30 09:00:58;;;;;;;1999.90;999.90;;;1.30;99.90;;;;;;4976478;28;20105;-71
2023/11/30 09:03:24;;;;;;;1999.90;999.90;;;1.40;99.90;;;;;;4993681;28;20071;-71
2023/11/30 09:05:50;;;;;;;1999.90;999.90;;;1.40;99.90;;;;;;4977169;28;20382;-71
2023/11/30 09:08:16;;;;;;;1999.90;999.90;;;1.40;99.90;;;;;;4999339;28;20043;-71
2023/11/30 09:10:43;;;;;;;1999.90;999.90;;;1.50;99.90;;;;;;4993117;28;20061;-71
2023/11/30 09:13:09;;;;;;;;;;;1.60;99.90;;;;;;4993818;28;20026;-71
2023/11/30 09:15:34;;;;;;;1999.90;999.90;;;1.50;99.90;;;;;;5060483;28;19967;-71
2023/11/30 09:18:03;;;;;;;1999.90;999.90;;;1.50;99.90;;;;;;4988530;28;20031;-71
2023/11/30 09:20:29;;;;;;;1999.90;999.90;;;1.60;99.90;;;;;;5052643;28;20028;-70
2023/11/30 09:22:55;;;;;;;1999.90;999.90;;;1.60;99.90;;;;;;5000338;28;20297;-70
2023/11/30 09:25:21;;;;;;;1999.90;999.90;;;1.60;99.90;;;;;;4996801;28;20079;-69
2023/11/30 09:27:47;;;;;;;1999.90;999.90;;;1.60;99.90;;;;;;4992899;28;20062;-70
2023/11/30 09:30:14;;;;;;;1999.90;999.90;;;1.50;99.90;;;;;;4993502;28;20034;-70
2023/11/30 09:32:40;;;;;;;;;;;1.60;99.90;;;;;;5005029;28;20042;-70
2023/11/30 09:35:06;;;;;;;1999.90;999.90;;;1.60;99.90;;;;;;4991752;28;19918;-71
2023/11/30 09:37:32;;;;;;;1999.90;999.90;;;1.60;99.90;;;;;;4992792;28;20351;-70
2023/11/30 09:39:58;;;;;;;1999.90;999.90;;;1.70;99.90;;;;;;5005731;28;20032;-70
2023/11/30 09:42:26;;;;;;;1999.90;999.90;;;1.80;99.90;;;;;;5009427;28;20027;-70
2023/11/30 09:45:00;;;;;;;1999.90;999.90;;;1.90;99.90;;;;;;4996373;28;20015;-70
2023/11/30 09:47:26;;;;;;;1999.90;999.90;;;1.90;99.90;;;;;;4991944;28;20056;-70
2023/11/30 09:49:51;;;;;;;1999.90;999.90;;;2.00;99.90;;;;;;4992241;28;20041;-70
2023/11/30 09:52:17;;;;;;;1999.90;999.90;;;2.00;99.90;;;;;;4988671;28;20117;-70
2023/11/30 09:54:43;;;;;;;1999.90;999.90;;;2.00;99.90;;;;;;4980883;28;20027;-70
2023/11/30 09:57:09;;;;;;;1999.90;999.90;;;2.00;99.90;;;;;;4992830;28;20317;-70
2023/11/30 09:59:35;;;;;;;1999.90;999.90;;;1.90;99.90;;;;;;5008140;28;20046;-70
2023/11/30 10:02:02;;;;;;;1999.90;999.90;;;1.80;99.90;;;;;;4992197;28;20290;-70
2023/11/30 10:04:28;;;;;;;1999.90;999.90;;;1.80;99.90;;;;;;4992529;28;20158;-69
2023/11/30 10:06:56;;;;;;;1999.90;999.90;;;1.80;99.90;;;;;;4993768;28;20037;-69
2023/11/30 10:09:22;;;;;;;1999.90;999.90;;;1.80;99.90;;;;;;4991892;28;20034;-70
2023/11/30 10:11:48;;;;;;;1999.90;999.90;;;1.80;99.90;;;;;;5013951;28;20021;-70
2023/11/30 10:14:14;;;;;;;1999.90;999.90;;;1.80;99.90;;;;;;4992084;28;20079;-70
2023/11/30 10:16:40;;;;;;;1999.90;999.90;;;1.80;99.90;;;;;;4986192;28;20765;-70
2023/11/30 10:19:07;;;;;;;1999.90;999.90;;;1.80;99.90;;;;;;4992191;28;20325;-70
2023/11/30 10:21:32;;;;;;;1999.90;999.90;;;1.70;99.90;;;;;;4992094;28;20044;-70
2023/11/30 10:23:59;;;;;;;1999.90;999.90;;;1.80;99.90;;;;;;4992267;28;20317;-70
2023/11/30 10:26:25;;;;;;;1999.90;999.90;;;1.80;99.90;;;;;;5027005;28;20046;-70
2023/11/30 10:28:55;;;;;;;1999.90;999.90;;;1.90;99.90;;;;;;5015641;28;20030;-70
2023/11/30 10:31:24;;;;;;;1999.90;999.90;;;2.00;99.90;;;;;;4998478;28;20026;-70
2023/11/30 10:33:55;;;;;;;1999.90;999.90;;;2.00;99.90;;;;;;5035537;28;20027;-70
2023/11/30 10:36:29;;;;;;;1999.90;999.90;;;2.10;99.90;;;;;;4993449;28;20113;-69
2023/11/30 10:39:10;;;;;;;1999.90;999.90;;;2.10;99.90;;;;;;4992342;28;20313;-70
2023/11/30 10:41:50;;;;;;;1999.90;999.90;;;2.10;99.90;;;;;;4990800;28;20424;-70
2023/11/30 10:44:25;;;;;;;1999.90;999.90;;;2.10;99.90;;;;;;5006695;28;20026;-70
2023/11/30 10:46:59;;;;;;;1999.90;999.90;;;2.20;99.90;;;;;;4984097;28;20026;-70
2023/11/30 10:49:27;;;;;;;1999.90;999.90;;;2.20;99.90;;;;;;4990264;28;20019;-70
2023/11/30 10:52:00;;;;;;;1999.90;999.90;;;2.30;99.90;;;;;;5052780;28;20035;-70
2023/11/30 10:54:35;;;;;;;1999.90;999.90;;;2.20;99.90;;;;;;4973174;28;20037;-70
2023/11/30 10:57:02;;;;;;;1999.90;999.90;;;2.20;99.90;;;;;;4981340;28;20027;-70
2023/11/30 10:59:32;;;;;;;1999.90;999.90;;;2.30;99.90;;;;;;4997509;28;20029;-70
2023/11/30 11:01:58;;;;;;;1999.90;999.90;;;2.30;99.90;;;;;;4993888;28;20306;-70
2023/11/30 11:04:26;;;;;;;1999.90;999.90;;;2.30;99.90;;;;;;5008426;28;20019;-70
2023/11/30 11:07:03;;;;;;;1999.90;999.90;;;2.50;99.90;;;;;;5062209;28;20088;-70
2023/11/30 11:09:42;;;;;;;1999.90;999.90;;;2.50;99.90;;;;;;5000861;28;20037;-70
2023/11/30 11:12:24;;;;;;;1999.90;999.90;;;2.50;99.90;;;;;;5005855;28;20360;-69
2023/11/30 11:15:04;;;;;;;1999.90;999.90;;;2.50;99.90;;;;;;5045812;28;20016;-70
2023/11/30 11:17:30;;;;;;;1999.90;999.90;;;2.50;99.90;;;;;;4992042;28;20343;-70
2023/11/30 11:20:00;;;;;;;1999.90;999.90;;;2.60;99.90;;;;;;5001836;28;20151;-69
2023/11/30 11:22:26;;;;;;;1999.90;999.90;;;2.60;99.90;;;;;;4991521;28;20440;-69
2023/11/30 11:24:57;;;;;;;1999.90;999.90;;;2.70;99.90;;;;;;4974941;28;20038;-69
2023/11/30 11:27:31;;;;;;;1999.90;999.90;;;2.70;99.90;;;;;;4987803;28;20022;-69
2023/11/30 11:29:58;;;;;;;1999.90;999.90;;;2.80;99.90;;;;;;4984786;28;20034;-69
2023/11/30 11:32:25;;;;;;;1999.90;999.90;;;2.80;99.90;;;;;;4975317;28;20046;-70
2023/11/30 11:34:51;;;;;;;1999.90;999.90;;;2.70;99.90;;;;;;4988331;28;20037;-70
2023/11/30 11:37:18;;;;;;;1999.90;999.90;;;2.70;99.90;;;;;;4993199;28;20324;-70
2023/11/30 11:39:44;;;;;;;1999.90;999.90;;;2.70;99.90;;;;;;4991191;28;20358;-70
2023/11/30 11:42:10;;;;;;;1999.90;999.90;;;2.70;99.90;;;;;;4990072;28;20111;-70
2023/11/30 11:44:36;;;;;;;1999.90;999.90;;;2.70;99.90;;;;;;4995065;28;20024;-71
2023/11/30 11:47:03;;;;;;;1999.90;999.90;;;2.80;99.90;;;;;;4989353;28;20030;-70
2023/11/30 11:49:29;;;;;;;1999.90;999.90;;;2.90;99.90;;;;;;4990898;28;20083;-70
2023/11/30 11:51:55;;;;;;;1999.90;999.90;;;3.10;99.90;;;;;;4984508;28;20421;-70
2023/11/30 11:54:22;;;;;;;1999.90;999.90;;;3.20;99.90;;;;;;4980676;28;20117;-70
2023/11/30 11:56:50;;;;;;;1999.90;999.90;;;3.40;99.90;;;;;;4989143;28;20023;-70
2023/11/30 11:59:23;;;;;;;1999.90;999.90;;;3.40;99.90;;;;;;4990755;28;20564;-70
2023/11/30 12:01:50;;;;;;;1999.90;999.90;;;3.40;99.90;;;;;;4978696;28;20018;-70
2023/11/30 12:04:30;;;;;;;1999.90;999.90;;;3.60;99.90;;;;;;4982485;28;20027;-70
2023/11/30 12:06:57;;;;;;;1999.90;999.90;;;3.60;99.90;;;;;;4988739;28;20026;-70
2023/11/30 12:09:23;;;;;;;;;;;3.60;99.90;;;;;;4986530;28;20058;-71